Time;durP1;ratioP1;P1;durP2;ratioP2;P2;SDS_P1;SDS_P2;PMS_P1;PMS_P2;Temp;Humidity;BMP_temperature;BMP_pressure;BME280_temperature;BME280_humidity;BME280_pressure;Samples;Min_cycle;Max_cycle;Signal;HPM_P1;HPM_P2
2023/07/24 00:01:20;;;;;;;3.72;1.77;;;20.30;82.70;;;;;;5047771;28;20029;-64
2023/07/24 00:03:46;;;;;;;3.97;1.80;;;20.20;82.70;;;;;;5049093;28;20024;-65
2023/07/24 00:06:12;;;;;;;4.38;1.98;;;20.20;82.70;;;;;;5051094;28;20033;-65
2023/07/24 00:08:38;;;;;;;5.03;2.03;;;20.20;82.70;;;;;;5050601;28;20059;-65
2023/07/24 00:11:08;;;;;;;3.38;1.60;;;20.20;82.60;;;;;;5052497;28;20033;-65
2023/07/24 00:13:33;;;;;;;4.45;2.25;;;20.20;82.60;;;;;;5045938;28;20104;-65
2023/07/24 00:15:59;;;;;;;4.93;2.10;;;20.20;82.60;;;;;;5050435;28;20104;-65
2023/07/24 00:18:25;;;;;;;4.60;1.88;;;20.20;82.60;;;;;;5053360;28;20480;-65
2023/07/24 00:20:50;;;;;;;4.10;2.08;;;20.20;82.60;;;;;;5035560;28;20479;-65
2023/07/24 00:23:16;;;;;;;4.85;2.20;;;20.20;82.60;;;;;;5049727;28;20028;-64
2023/07/24 00:25:42;;;;;;;4.78;2.05;;;20.30;82.70;;;;;;5049556;28;20468;-64
2023/07/24 00:28:08;;;;;;;4.65;2.00;;;20.20;82.60;;;;;;5053018;28;20086;-65
2023/07/24 00:30:33;;;;;;;5.07;1.90;;;20.20;82.90;;;;;;5053239;28;20067;-65
2023/07/24 00:32:59;;;;;;;3.42;1.70;;;20.30;82.70;;;;;;5047654;28;20025;-65
2023/07/24 00:35:26;;;;;;;4.63;2.00;;;20.30;82.70;;;;;;5049267;28;20025;-64
2023/07/24 00:37:52;;;;;;;4.28;2.00;;;20.20;82.60;;;;;;5053011;28;20024;-65
2023/07/24 00:40:18;;;;;;;5.75;2.10;;;20.20;82.60;;;;;;5052202;28;20074;-65
2023/07/24 00:42:48;;;;;;;4.18;2.15;;;20.20;82.60;;;;;;5053414;28;20053;-64
2023/07/24 00:45:14;;;;;;;4.97;2.15;;;20.20;82.60;;;;;;5057909;28;20077;-65
2023/07/24 00:47:41;;;;;;;5.53;2.50;;;20.20;82.60;;;;;;5057534;28;20029;-64
2023/07/24 00:50:08;;;;;;;4.80;2.28;;;20.20;82.50;;;;;;5045455;28;20525;-65
2023/07/24 00:52:35;;;;;;;5.30;2.20;;;20.20;82.50;;;;;;5057110;28;20021;-64
2023/07/24 00:55:01;;;;;;;5.63;2.00;;;20.20;82.50;;;;;;5046703;28;20025;-65
2023/07/24 00:57:26;;;;;;;5.97;1.83;;;20.10;82.40;;;;;;5057078;28;20054;-65
2023/07/24 00:59:52;;;;;;;4.13;1.90;;;20.10;82.50;;;;;;5056484;28;20132;-65
2023/07/24 01:02:18;;;;;;;5.30;2.30;;;20.10;82.50;;;;;;5056065;28;20087;-65
2023/07/24 01:04:44;;;;;;;4.43;1.88;;;20.10;82.50;;;;;;5048131;28;20060;-64
2023/07/24 01:07:10;;;;;;;5.03;2.25;;;20.10;82.50;;;;;;5056686;28;20032;-64
2023/07/24 01:09:36;;;;;;;4.82;2.00;;;20.10;82.60;;;;;;5057871;28;20029;-65
2023/07/24 01:12:22;;;;;;;4.68;2.10;;;20.10;82.50;;;;;;5039577;28;20052;-64
2023/07/24 01:15:03;;;;;;;5.78;1.83;;;20.10;82.60;;;;;;5054642;28;20330;-65
2023/07/24 01:17:32;;;;;;;5.55;1.85;;;20.10;82.60;;;;;;5055759;28;20353;-64
2023/07/24 01:20:02;;;;;;;4.13;2.05;;;20.10;82.60;;;;;;5056128;28;20032;-65
2023/07/24 01:22:28;;;;;;;4.35;1.80;;;20.10;82.60;;;;;;5054960;28;20029;-65
2023/07/24 01:25:26;;;;;;;5.95;2.50;;;20.10;83.40;;;;;;5056848;28;20175;-65
2023/07/24 01:27:52;;;;;;;4.35;2.20;;;20.10;82.80;;;;;;5056598;28;20118;-65
2023/07/24 01:30:19;;;;;;;6.07;2.70;;;20.00;82.90;;;;;;5053959;28;20049;-65
2023/07/24 01:32:47;;;;;;;6.30;2.78;;;20.10;83.00;;;;;;5057506;28;20028;-65
2023/07/24 01:35:12;;;;;;;5.63;2.90;;;20.10;83.00;;;;;;5054688;28;20055;-64
2023/07/24 01:37:40;;;;;;;5.72;2.55;;;20.10;83.70;;;;;;5056353;28;20029;-64
2023/07/24 01:40:10;;;;;;;5.65;2.58;;;20.10;83.00;;;;;;5043060;28;20075;-64
2023/07/24 01:42:36;;;;;;;5.75;2.70;;;20.10;83.10;;;;;;5032099;28;20102;-65
2023/07/24 01:45:03;;;;;;;5.65;3.05;;;20.10;83.00;;;;;;5055111;28;20039;-65
2023/07/24 01:47:32;;;;;;;6.70;3.10;;;20.10;83.00;;;;;;5055949;28;20029;-65
2023/07/24 01:49:58;;;;;;;5.32;2.70;;;20.10;83.00;;;;;;5050828;28;20452;-65
2023/07/24 01:52:25;;;;;;;5.85;2.88;;;20.10;82.90;;;;;;5028119;28;20112;-65
2023/07/24 01:54:51;;;;;;;5.85;3.17;;;20.10;82.90;;;;;;5054720;28;20063;-64
2023/07/24 01:57:17;;;;;;;5.93;2.80;;;20.10;83.00;;;;;;5055191;28;20025;-65
2023/07/24 01:59:44;;;;;;;6.18;3.05;;;20.10;83.00;;;;;;5055328;28;20048;-65
2023/07/24 02:02:10;;;;;;;6.32;3.20;;;20.10;83.00;;;;;;5052072;28;20037;-65
2023/07/24 02:04:36;;;;;;;6.35;3.15;;;20.10;83.10;;;;;;5056468;28;20083;-65
2023/07/24 02:07:03;;;;;;;6.28;3.15;;;20.10;83.10;;;;;;5037931;28;20039;-65
2023/07/24 02:09:29;;;;;;;6.05;3.28;;;20.10;83.10;;;;;;5038721;28;20087;-65
2023/07/24 02:11:55;;;;;;;6.45;2.95;;;20.10;83.10;;;;;;5035950;28;20033;-65
2023/07/24 02:14:21;;;;;;;5.38;2.72;;;20.10;83.10;;;;;;5038701;28;20021;-64
2023/07/24 02:16:46;;;;;;;5.45;2.80;;;20.10;83.10;;;;;;5054199;28;20037;-65
2023/07/24 02:19:12;;;;;;;6.68;3.20;;;20.10;83.20;;;;;;5037851;28;20025;-65
2023/07/24 02:21:38;;;;;;;6.45;2.90;;;20.00;83.20;;;;;;5051441;28;20037;-65
2023/07/24 02:24:04;;;;;;;5.88;2.88;;;20.00;83.10;;;;;;5054814;28;20036;-65
2023/07/24 02:26:30;;;;;;;5.85;3.00;;;20.10;83.20;;;;;;5055274;28;20029;-65
2023/07/24 02:28:56;;;;;;;6.10;2.70;;;20.10;83.10;;;;;;5055111;28;20044;-64
2023/07/24 02:31:22;;;;;;;6.53;2.80;;;20.10;83.10;;;;;;5051031;28;20037;-65
2023/07/24 02:33:48;;;;;;;6.80;3.30;;;20.10;83.10;;;;;;5049593;28;20028;-65
2023/07/24 02:36:15;;;;;;;5.97;3.25;;;20.10;83.00;;;;;;5055890;28;20036;-65
2023/07/24 02:38:40;;;;;;;7.15;3.30;;;20.10;83.00;;;;;;5055249;28;20028;-65
2023/07/24 02:41:06;;;;;;;6.22;3.08;;;20.10;83.00;;;;;;5055785;28;20079;-65
2023/07/24 02:43:32;;;;;;;6.00;3.22;;;20.10;83.10;;;;;;5054044;28;20037;-65
2023/07/24 02:46:02;;;;;;;6.97;3.58;;;20.10;83.20;;;;;;5054458;28;20053;-65
2023/07/24 02:48:29;;;;;;;7.18;3.50;;;20.00;83.10;;;;;;5054992;28;20033;-65
2023/07/24 02:50:55;;;;;;;6.95;3.58;;;20.10;83.20;;;;;;5054485;28;20380;-65
2023/07/24 02:53:21;;;;;;;7.20;3.58;;;20.10;83.30;;;;;;5053642;28;20021;-65
2023/07/24 02:55:46;;;;;;;6.35;3.58;;;20.10;83.30;;;;;;5054287;28;20096;-65
2023/07/24 02:58:13;;;;;;;6.38;3.08;;;20.00;83.30;;;;;;5054476;28;20119;-65
2023/07/24 03:00:39;;;;;;;6.57;3.53;;;20.00;83.30;;;;;;5035131;28;20021;-65
2023/07/24 03:03:05;;;;;;;9.00;3.30;;;20.00;83.40;;;;;;5052323;28;20028;-65
2023/07/24 03:05:33;;;;;;;6.40;3.15;;;20.10;83.50;;;;;;5054376;28;20400;-65
2023/07/24 03:07:59;;;;;;;8.00;3.60;;;20.10;83.50;;;;;;5053050;28;20099;-65
2023/07/24 03:10:25;;;;;;;6.55;3.58;;;20.10;83.50;;;;;;5051048;28;20029;-65
2023/07/24 03:12:52;;;;;;;8.05;4.18;;;20.10;83.60;;;;;;5044587;28;20031;-65
2023/07/24 03:15:18;;;;;;;6.57;3.40;;;20.00;83.50;;;;;;5047801;28;20346;-65
2023/07/24 03:17:43;;;;;;;7.93;3.72;;;20.00;83.60;;;;;;5051068;28;20032;-64
2023/07/24 03:20:19;;;;;;;8.20;3.80;;;20.00;83.70;;;;;;5052749;28;20017;-64
2023/07/24 03:22:45;;;;;;;6.68;3.72;;;20.00;83.70;;;;;;5050362;28;20055;-65
2023/07/24 03:25:11;;;;;;;7.00;3.85;;;20.00;83.80;;;;;;5045683;28;20058;-64
2023/07/24 03:27:37;;;;;;;8.63;4.45;;;20.00;83.80;;;;;;5053725;28;20029;-65
2023/07/24 03:30:04;;;;;;;8.50;4.43;;;20.00;83.90;;;;;;5036860;28;20469;-65
2023/07/24 03:32:29;;;;;;;7.25;3.83;;;20.00;83.90;;;;;;5047989;28;20043;-65
2023/07/24 03:34:55;;;;;;;8.90;4.25;;;20.00;83.90;;;;;;5046129;28;20025;-65
2023/07/24 03:37:21;;;;;;;7.68;4.40;;;20.00;84.00;;;;;;5051605;28;20025;-65
2023/07/24 03:39:48;;;;;;;6.90;4.10;;;20.00;84.00;;;;;;5043438;28;20021;-65
2023/07/24 03:42:28;;;;;;;7.88;4.30;;;20.00;84.10;;;;;;5056118;28;20444;-65
2023/07/24 03:44:55;;;;;;;7.70;4.72;;;20.00;84.10;;;;;;5018181;28;20018;-65
2023/07/24 03:47:21;;;;;;;8.32;4.43;;;20.00;84.10;;;;;;5048728;28;20031;-65
2023/07/24 03:49:46;;;;;;;7.50;4.47;;;20.00;84.20;;;;;;5051764;28;20448;-65
2023/07/24 03:52:12;;;;;;;9.38;4.72;;;19.90;84.10;;;;;;5052226;28;20047;-65
2023/07/24 03:54:38;;;;;;;7.97;4.65;;;20.00;84.20;;;;;;5049372;28;20028;-65
2023/07/24 03:57:05;;;;;;;8.38;4.82;;;19.90;84.20;;;;;;5046403;28;20041;-65
2023/07/24 03:59:31;;;;;;;8.00;4.57;;;19.90;84.30;;;;;;5049738;28;20152;-65
2023/07/24 04:01:57;;;;;;;8.50;5.05;;;19.80;84.20;;;;;;5049743;28;20029;-65
2023/07/24 04:04:23;;;;;;;7.85;4.75;;;19.90;84.30;;;;;;5052116;28;20041;-65
2023/07/24 04:06:49;;;;;;;8.02;5.10;;;19.80;84.90;;;;;;5052591;28;20036;-65
2023/07/24 04:09:15;;;;;;;7.82;4.82;;;19.90;84.30;;;;;;5048673;28;20025;-65
2023/07/24 04:11:42;;;;;;;7.70;4.32;;;19.80;84.30;;;;;;5049717;28;20060;-65
2023/07/24 04:14:08;;;;;;;7.85;4.53;;;19.80;84.40;;;;;;5050070;28;20057;-65
2023/07/24 04:16:33;;;;;;;8.05;4.28;;;19.80;84.40;;;;;;5051680;28;20064;-65
2023/07/24 04:18:59;;;;;;;7.97;4.68;;;19.80;84.40;;;;;;5047228;28;20072;-64
2023/07/24 04:21:25;;;;;;;6.93;3.83;;;19.70;84.40;;;;;;5048565;28;20033;-65
2023/07/24 04:23:51;;;;;;;8.30;4.25;;;19.70;84.50;;;;;;5048919;28;20025;-65
2023/07/24 04:26:17;;;;;;;7.47;3.88;;;19.70;84.50;;;;;;5052089;28;20040;-65
2023/07/24 04:28:42;;;;;;;7.82;4.13;;;19.70;84.50;;;;;;5034511;28;20402;-65
2023/07/24 04:31:08;;;;;;;7.32;4.15;;;19.70;84.40;;;;;;5047814;28;20402;-65
2023/07/24 04:33:34;;;;;;;6.68;3.55;;;19.70;84.30;;;;;;5049921;28;20031;-65
2023/07/24 04:35:59;;;;;;;7.60;4.22;;;19.70;84.30;;;;;;5047366;28;20103;-64
2023/07/24 04:38:25;;;;;;;6.70;3.80;;;19.70;84.40;;;;;;5050639;28;20476;-65
2023/07/24 04:40:51;;;;;;;6.75;4.00;;;19.60;84.30;;;;;;5046025;28;20094;-65
2023/07/24 04:43:17;;;;;;;7.13;4.30;;;19.70;84.30;;;;;;5051239;28;20040;-65
2023/07/24 04:45:42;;;;;;;7.75;4.50;;;19.60;84.30;;;;;;5047087;28;20043;-65
2023/07/24 04:48:08;;;;;;;7.22;4.05;;;19.70;84.40;;;;;;5048140;28;20468;-64
2023/07/24 04:50:34;;;;;;;7.88;4.47;;;19.60;84.40;;;;;;5051836;28;20088;-65
2023/07/24 04:53:00;;;;;;;8.10;4.35;;;19.60;84.40;;;;;;5045898;28;20049;-64
2023/07/24 04:55:25;;;;;;;7.50;4.40;;;19.60;84.50;;;;;;5049211;28;20037;-65
2023/07/24 04:57:51;;;;;;;7.25;4.22;;;19.60;84.50;;;;;;5048967;28;20104;-65
2023/07/24 05:00:17;;;;;;;7.95;4.63;;;19.60;84.50;;;;;;5049836;28;20415;-64
2023/07/24 05:02:42;;;;;;;8.15;4.80;;;19.60;84.50;;;;;;5050993;28;20025;-64
2023/07/24 05:05:09;;;;;;;7.25;4.40;;;19.60;84.60;;;;;;5045862;28;20342;-65
2023/07/24 05:07:34;;;;;;;7.80;4.78;;;19.60;84.50;;;;;;5051373;28;20051;-65
2023/07/24 05:10:00;;;;;;;7.78;4.70;;;19.60;84.50;;;;;;5033322;28;20020;-65
2023/07/24 05:12:26;;;;;;;7.95;4.40;;;19.60;84.60;;;;;;5046308;28;20048;-65
2023/07/24 05:14:52;;;;;;;7.50;4.43;;;19.60;84.60;;;;;;5044705;28;20438;-65
2023/07/24 05:17:17;;;;;;;8.30;4.97;;;19.60;84.60;;;;;;5039019;28;20462;-65
2023/07/24 05:19:43;;;;;;;9.32;5.40;;;19.50;84.60;;;;;;5033142;28;20040;-65
2023/07/24 05:22:10;;;;;;;9.05;5.40;;;19.50;84.60;;;;;;5046801;28;20032;-65
2023/07/24 05:24:39;;;;;;;7.80;4.50;;;19.50;84.60;;;;;;5044552;28;20112;-65
2023/07/24 05:27:05;;;;;;;8.75;5.50;;;19.60;84.70;;;;;;5042305;28;20017;-65
2023/07/24 05:29:31;;;;;;;8.18;5.40;;;19.60;84.60;;;;;;5038927;28;20044;-65
2023/07/24 05:31:58;;;;;;;10.82;6.45;;;19.50;84.60;;;;;;5045749;28;20033;-65
2023/07/24 05:34:25;;;;;;;9.30;6.20;;;19.60;84.60;;;;;;5040580;28;20127;-65
2023/07/24 05:36:51;;;;;;;9.40;6.20;;;19.50;84.50;;;;;;5042651;28;20021;-65
2023/07/24 05:39:16;;;;;;;9.45;6.15;;;19.50;84.50;;;;;;5049389;28;20167;-65
2023/07/24 05:41:42;;;;;;;9.18;5.90;;;19.50;84.50;;;;;;5048232;28;20089;-65
2023/07/24 05:44:08;;;;;;;8.70;6.13;;;19.50;84.50;;;;;;5050131;28;20110;-65
2023/07/24 05:46:34;;;;;;;9.73;6.35;;;19.50;84.50;;;;;;5052200;28;20061;-65
2023/07/24 05:49:02;;;;;;;9.68;5.82;;;19.60;84.50;;;;;;5049572;28;20025;-65
2023/07/24 05:51:28;;;;;;;9.98;5.93;;;19.60;84.50;;;;;;5048400;28;20037;-64
2023/07/24 05:53:53;;;;;;;10.55;5.85;;;19.60;84.50;;;;;;5050992;28;20017;-64
2023/07/24 05:56:19;;;;;;;9.10;6.25;;;19.70;84.50;;;;;;5050450;28;20354;-64
2023/07/24 05:58:45;;;;;;;9.05;5.45;;;19.70;84.40;;;;;;5048539;28;20048;-65
2023/07/24 06:01:11;;;;;;;11.25;5.88;;;19.70;84.40;;;;;;5050588;28;20152;-64
2023/07/24 06:03:38;;;;;;;9.88;6.13;;;19.70;84.40;;;;;;5052272;28;20120;-64
2023/07/24 06:06:04;;;;;;;8.20;5.45;;;19.70;84.40;;;;;;5052079;28;20111;-66
2023/07/24 06:08:30;;;;;;;9.15;5.40;;;19.70;84.40;;;;;;5050400;28;20419;-66
2023/07/24 06:10:56;;;;;;;9.55;6.47;;;19.70;84.30;;;;;;5049449;28;20040;-66
2023/07/24 06:13:21;;;;;;;9.85;6.53;;;19.80;84.30;;;;;;5051796;28;20052;-65
2023/07/24 06:15:48;;;;;;;9.40;5.97;;;19.70;84.20;;;;;;5053929;28;20066;-65
2023/07/24 06:18:14;;;;;;;9.95;5.90;;;19.70;84.20;;;;;;5054192;28;20116;-66
2023/07/24 06:20:40;;;;;;;12.02;6.45;;;19.80;84.20;;;;;;5051908;28;20095;-66
2023/07/24 06:23:06;;;;;;;9.45;6.53;;;19.80;84.10;;;;;;5052945;28;20024;-66
2023/07/24 06:25:32;;;;;;;10.38;6.40;;;19.80;84.10;;;;;;5051621;28;20351;-66
2023/07/24 06:27:58;;;;;;;9.55;6.35;;;19.80;84.10;;;;;;5050447;28;20033;-66
2023/07/24 06:30:24;;;;;;;11.32;6.57;;;19.80;84.00;;;;;;5053263;28;20037;-66
2023/07/24 06:32:50;;;;;;;10.90;7.00;;;19.90;84.00;;;;;;5050578;28;20101;-66
2023/07/24 06:35:16;;;;;;;10.63;6.75;;;19.90;83.90;;;;;;5053925;28;20505;-66
2023/07/24 06:37:41;;;;;;;11.27;7.18;;;19.90;83.90;;;;;;5050319;28;20117;-66
2023/07/24 06:40:08;;;;;;;11.68;7.07;;;20.00;83.80;;;;;;5048411;28;20039;-66
2023/07/24 06:42:34;;;;;;;11.02;6.85;;;20.00;84.40;;;;;;5050698;28;20037;-66
2023/07/24 06:45:00;;;;;;;10.63;6.95;;;20.10;83.60;;;;;;5052862;28;20041;-66
2023/07/24 06:47:26;;;;;;;10.75;7.22;;;20.10;83.40;;;;;;5053258;28;20029;-66
2023/07/24 06:49:51;;;;;;;10.30;7.38;;;20.20;83.30;;;;;;5047817;28;20040;-66
2023/07/24 06:52:17;;;;;;;12.27;8.10;;;20.20;83.20;;;;;;5046552;28;20071;-66
2023/07/24 06:54:43;;;;;;;11.63;7.85;;;20.20;83.20;;;;;;5052218;28;20021;-66
2023/07/24 06:57:09;;;;;;;9.95;6.50;;;20.20;83.10;;;;;;5052185;28;20382;-64
2023/07/24 06:59:35;;;;;;;11.77;6.88;;;20.10;83.10;;;;;;5058449;28;20041;-65
2023/07/24 07:02:00;;;;;;;10.32;7.07;;;20.10;83.20;;;;;;5052727;28;20028;-65
2023/07/24 07:04:26;;;;;;;10.75;7.35;;;20.10;83.20;;;;;;5051384;28;20422;-65
2023/07/24 07:06:52;;;;;;;9.90;6.60;;;20.10;83.00;;;;;;5052880;28;20528;-65
2023/07/24 07:09:17;;;;;;;11.57;6.80;;;20.10;82.90;;;;;;5051778;28;20581;-65
2023/07/24 07:11:44;;;;;;;10.20;7.45;;;20.10;82.80;;;;;;5047807;28;20051;-65
2023/07/24 07:14:10;;;;;;;12.05;8.35;;;20.20;82.80;;;;;;5053498;28;20025;-65
2023/07/24 07:16:36;;;;;;;11.70;7.63;;;20.40;82.50;;;;;;5050786;28;20032;-65
2023/07/24 07:19:02;;;;;;;10.75;7.55;;;20.60;82.20;;;;;;5048540;28;20179;-65
2023/07/24 07:21:27;;;;;;;11.50;8.00;;;20.80;81.80;;;;;;5052028;28;20029;-66
2023/07/24 07:23:53;;;;;;;12.93;8.70;;;21.10;81.20;;;;;;5049920;28;20048;-65
2023/07/24 07:26:19;;;;;;;11.00;8.27;;;21.40;80.40;;;;;;5052755;28;20052;-65
2023/07/24 07:28:44;;;;;;;13.13;8.55;;;21.50;79.90;;;;;;5050695;28;20044;-65
2023/07/24 07:31:11;;;;;;;13.93;9.45;;;21.50;79.50;;;;;;5047401;28;20036;-66
2023/07/24 07:33:37;;;;;;;12.02;8.23;;;21.50;79.30;;;;;;5053025;28;20036;-65
2023/07/24 07:36:04;;;;;;;13.23;8.93;;;21.60;79.00;;;;;;5052715;28;20033;-65
2023/07/24 07:38:30;;;;;;;11.30;8.02;;;21.80;78.60;;;;;;5050185;28;20025;-65
2023/07/24 07:40:55;;;;;;;11.75;8.30;;;21.80;78.40;;;;;;5045862;28;20473;-65
2023/07/24 07:43:21;;;;;;;10.90;7.88;;;21.90;78.30;;;;;;5049132;28;20032;-65
2023/07/24 07:45:48;;;;;;;13.02;8.65;;;21.90;77.80;;;;;;5045878;28;20040;-65
2023/07/24 07:48:14;;;;;;;12.18;8.90;;;21.90;77.50;;;;;;5049102;28;20021;-65
2023/07/24 07:50:40;;;;;;;11.65;8.77;;;21.90;77.40;;;;;;5032610;28;20511;-65
2023/07/24 07:53:05;;;;;;;14.30;9.30;;;21.90;77.30;;;;;;5049236;28;20060;-64
2023/07/24 07:55:31;;;;;;;12.20;8.68;;;21.90;77.20;;;;;;5047551;28;20013;-64
2023/07/24 07:57:57;;;;;;;11.95;8.60;;;21.80;77.00;;;;;;5045539;28;20025;-65
2023/07/24 08:00:23;;;;;;;11.93;8.98;;;21.70;77.00;;;;;;5051345;28;20037;-65
2023/07/24 08:02:49;;;;;;;11.68;8.75;;;21.70;77.10;;;;;;5031377;28;20376;-64
2023/07/24 08:05:15;;;;;;;14.60;8.73;;;21.60;77.20;;;;;;5052744;28;20445;-65
2023/07/24 08:07:41;;;;;;;11.90;8.15;;;21.50;77.10;;;;;;5054424;28;20120;-65
2023/07/24 08:10:07;;;;;;;12.35;8.63;;;21.50;77.20;;;;;;5051475;28;20025;-65
2023/07/24 08:12:33;;;;;;;11.77;8.35;;;21.40;77.20;;;;;;5041241;28;20029;-65
2023/07/24 08:14:59;;;;;;;13.82;9.57;;;21.30;77.20;;;;;;5054173;28;20452;-65
2023/07/24 08:17:25;;;;;;;11.88;8.68;;;21.30;77.30;;;;;;5036568;28;20439;-65
2023/07/24 08:19:51;;;;;;;13.10;8.68;;;21.20;77.40;;;;;;5053346;28;20107;-66
2023/07/24 08:22:19;;;;;;;12.65;9.48;;;21.10;77.50;;;;;;5051997;28;20020;-65
2023/07/24 08:24:45;;;;;;;14.57;10.15;;;21.10;77.70;;;;;;5054656;28;20029;-65
2023/07/24 08:27:11;;;;;;;14.48;10.10;;;21.10;77.90;;;;;;5053058;28;20104;-65
2023/07/24 08:29:38;;;;;;;13.02;9.50;;;21.30;77.80;;;;;;5053461;28;20081;-66
2023/07/24 08:32:04;;;;;;;11.93;8.82;;;21.50;77.60;;;;;;5052798;28;20029;-65
2023/07/24 08:34:30;;;;;;;14.30;9.65;;;21.50;77.30;;;;;;5053195;28;20028;-66
2023/07/24 08:36:56;;;;;;;13.90;9.55;;;21.70;77.20;;;;;;5048062;28;20104;-65
2023/07/24 08:39:22;;;;;;;13.05;9.30;;;22.00;77.40;;;;;;5052608;28;20037;-65
2023/07/24 08:41:47;;;;;;;12.35;9.57;;;22.10;76.20;;;;;;5049939;28;20032;-65
2023/07/24 08:44:13;;;;;;;12.35;8.63;;;22.10;76.00;;;;;;5048721;28;20037;-66
2023/07/24 08:46:41;;;;;;;11.48;8.65;;;22.30;75.80;;;;;;5024002;28;20021;-68
2023/07/24 08:49:11;;;;;;;10.65;8.25;;;22.40;75.50;;;;;;5048073;28;20071;-67
2023/07/24 08:51:37;;;;;;;12.02;8.73;;;22.40;75.00;;;;;;5045919;28;20036;-67
2023/07/24 08:54:04;;;;;;;10.50;7.60;;;22.50;74.80;;;;;;5045432;28;20016;-66
2023/07/24 08:56:30;;;;;;;10.15;7.95;;;22.60;74.30;;;;;;5042994;28;20052;-67
2023/07/24 08:58:56;;;;;;;10.23;7.72;;;22.70;74.30;;;;;;5030771;28;20125;-66
2023/07/24 09:01:22;;;;;;;9.73;7.15;;;22.90;73.10;;;;;;5046518;28;20195;-66
2023/07/24 09:03:48;;;;;;;10.07;7.30;;;23.20;72.50;;;;;;5044506;28;20028;-66
2023/07/24 09:06:13;;;;;;;9.88;6.60;;;23.50;71.70;;;;;;5046529;28;20021;-67
2023/07/24 09:08:41;;;;;;;10.00;7.43;;;23.60;71.20;;;;;;5048561;28;20025;-67
2023/07/24 09:11:08;;;;;;;9.75;6.85;;;23.80;70.80;;;;;;5049163;28;20097;-66
2023/07/24 09:13:36;;;;;;;10.18;7.88;;;23.70;70.40;;;;;;5052331;28;21510;-67
2023/07/24 09:16:02;;;;;;;10.75;7.38;;;23.60;70.30;;;;;;5063514;28;20369;-67
2023/07/24 09:18:44;;;;;;;10.43;7.82;;;23.60;70.50;;;;;;5047527;28;20021;-67
2023/07/24 09:21:13;;;;;;;10.02;7.07;;;23.50;70.10;;;;;;5047522;28;20025;-67
2023/07/24 09:23:43;;;;;;;10.00;7.60;;;23.60;70.10;;;;;;5052767;28;20043;-66
2023/07/24 09:26:09;;;;;;;10.80;7.32;;;23.50;69.50;;;;;;5046647;28;21194;-67
2023/07/24 09:28:35;;;;;;;11.73;7.80;;;23.40;69.70;;;;;;5052324;28;20492;-66
2023/07/24 09:31:01;;;;;;;11.65;7.45;;;23.30;69.90;;;;;;5046880;28;20074;-66
2023/07/24 09:33:38;;;;;;;11.68;7.90;;;23.30;69.60;;;;;;5050894;28;20446;-66
2023/07/24 09:36:07;;;;;;;11.07;8.48;;;23.20;69.60;;;;;;5047894;28;20035;-66
2023/07/24 09:38:33;;;;;;;10.50;7.22;;;23.10;69.70;;;;;;5053880;28;20021;-66
2023/07/24 09:41:02;;;;;;;11.02;7.68;;;23.10;70.00;;;;;;5043749;28;20020;-66
2023/07/24 09:43:28;;;;;;;12.45;8.02;;;23.20;70.10;;;;;;5048903;28;20369;-67
2023/07/24 09:45:55;;;;;;;9.35;6.57;;;23.50;69.90;;;;;;5031949;28;20410;-67
2023/07/24 09:48:24;;;;;;;10.10;6.97;;;23.90;69.00;;;;;;5029044;28;20025;-66
2023/07/24 09:50:54;;;;;;;9.25;6.22;;;24.20;67.90;;;;;;5046895;28;20061;-66
2023/07/24 09:53:42;;;;;;;9.23;6.22;;;24.30;67.00;;;;;;5047458;28;20326;-66
2023/07/24 09:56:09;;;;;;;9.60;6.00;;;24.20;66.70;;;;;;5063270;28;20452;-67
2023/07/24 09:58:37;;;;;;;10.40;6.15;;;23.90;66.80;;;;;;5048421;28;20364;-67
2023/07/24 10:01:06;;;;;;;10.07;6.50;;;23.60;66.90;;;;;;5049120;28;20029;-66
2023/07/24 10:03:35;;;;;;;9.75;6.35;;;23.40;67.10;;;;;;5047312;28;20025;-66
2023/07/24 10:06:01;;;;;;;9.52;6.28;;;23.20;67.40;;;;;;5046232;28;20090;-67
2023/07/24 10:08:27;;;;;;;9.32;5.93;;;23.10;67.50;;;;;;5033461;28;20063;-67
2023/07/24 10:10:53;;;;;;;9.20;5.57;;;23.00;67.50;;;;;;5051227;28;20021;-66
2023/07/24 10:13:21;;;;;;;10.50;6.78;;;23.00;67.60;;;;;;5049037;28;20037;-66
2023/07/24 10:15:48;;;;;;;8.73;6.43;;;22.90;67.70;;;;;;5046409;28;20025;-66
2023/07/24 10:18:16;;;;;;;9.52;6.72;;;22.70;68.00;;;;;;5043665;28;20071;-65
2023/07/24 10:20:42;;;;;;;11.65;7.60;;;22.60;68.60;;;;;;5053697;28;20408;-65
2023/07/24 10:23:10;;;;;;;9.38;6.38;;;22.40;69.30;;;;;;5050929;28;20033;-65
2023/07/24 10:25:40;;;;;;;9.65;5.30;;;22.40;69.70;;;;;;5042232;28;20049;-65
2023/07/24 10:28:10;;;;;;;10.02;6.60;;;22.40;69.60;;;;;;5045916;28;20024;-65
2023/07/24 10:30:41;;;;;;;11.00;6.85;;;22.40;69.40;;;;;;5034841;28;20033;-65
2023/07/24 10:33:17;;;;;;;9.93;6.10;;;22.50;69.20;;;;;;5044452;28;20047;-66
2023/07/24 10:35:45;;;;;;;9.13;5.97;;;22.50;69.00;;;;;;5043585;28;20060;-66
2023/07/24 10:38:13;;;;;;;7.78;5.53;;;22.50;68.90;;;;;;5040500;28;20340;-65
2023/07/24 10:40:40;;;;;;;8.90;6.47;;;22.50;68.90;;;;;;5042813;28;20032;-65
2023/07/24 10:43:17;;;;;;;10.95;6.32;;;22.50;68.80;;;;;;5042317;28;20033;-65
2023/07/24 10:45:50;;;;;;;10.43;6.68;;;22.50;68.60;;;;;;5041265;28;20347;-65
2023/07/24 10:48:17;;;;;;;9.35;7.03;;;22.50;68.60;;;;;;5049771;28;20483;-65
2023/07/24 10:50:50;;;;;;;10.85;6.90;;;22.50;68.60;;;;;;5046376;28;20370;-65
2023/07/24 10:53:18;;;;;;;10.93;6.88;;;22.40;68.70;;;;;;5045850;28;20033;-65
2023/07/24 10:55:47;;;;;;;9.15;6.43;;;22.40;69.10;;;;;;5046618;28;20025;-66
2023/07/24 10:58:13;;;;;;;10.45;6.95;;;22.30;69.20;;;;;;5043377;28;20034;-66
2023/07/24 11:00:47;;;;;;;9.32;6.75;;;22.30;69.30;;;;;;5041900;28;20350;-66
2023/07/24 11:03:14;;;;;;;9.50;6.93;;;22.20;69.40;;;;;;5045992;28;20036;-66
2023/07/24 11:05:44;;;;;;;9.15;6.60;;;22.20;69.60;;;;;;5044761;28;20025;-66
2023/07/24 11:08:18;;;;;;;10.00;6.07;;;22.20;69.60;;;;;;5050335;28;20040;-66
2023/07/24 11:11:03;;;;;;;9.25;5.75;;;22.20;69.60;;;;;;5042170;28;20295;-66
2023/07/24 11:13:29;;;;;;;9.20;5.85;;;22.20;69.40;;;;;;5043100;28;20171;-66
2023/07/24 11:15:55;;;;;;;9.77;5.88;;;22.20;69.30;;;;;;5054494;28;20052;-66
2023/07/24 11:18:22;;;;;;;8.05;5.53;;;22.20;69.30;;;;;;5049367;28;20350;-66
2023/07/24 11:20:51;;;;;;;9.10;6.05;;;22.20;69.10;;;;;;5052513;28;20327;-66
2023/07/24 11:23:18;;;;;;;8.68;6.40;;;22.30;69.20;;;;;;5054142;28;20035;-66
2023/07/24 11:25:44;;;;;;;11.23;6.70;;;22.40;69.10;;;;;;5054097;28;20028;-66
2023/07/24 11:28:12;;;;;;;8.38;5.70;;;22.50;69.10;;;;;;5049103;28;20450;-66
2023/07/24 11:30:38;;;;;;;9.98;6.13;;;22.50;68.80;;;;;;5050689;28;20086;-66
2023/07/24 11:33:07;;;;;;;9.00;5.75;;;22.50;68.70;;;;;;5041983;28;20033;-66
2023/07/24 11:35:34;;;;;;;10.82;6.63;;;22.60;68.40;;;;;;5051915;28;20037;-66
2023/07/24 11:38:00;;;;;;;10.52;7.28;;;22.60;68.40;;;;;;5046806;28;20481;-66
2023/07/24 11:40:38;;;;;;;11.18;6.60;;;22.50;68.20;;;;;;5050117;28;20025;-66
2023/07/24 11:43:04;;;;;;;9.60;6.82;;;22.50;68.20;;;;;;5048349;28;20028;-66
2023/07/24 11:45:30;;;;;;;9.60;6.85;;;22.40;68.40;;;;;;5047722;28;20026;-66
2023/07/24 11:47:56;;;;;;;9.55;6.55;;;22.30;68.50;;;;;;5055335;28;20115;-66
2023/07/24 11:50:23;;;;;;;10.55;6.43;;;22.20;68.50;;;;;;5049436;28;20137;-66
2023/07/24 11:52:53;;;;;;;10.77;6.35;;;22.20;68.80;;;;;;5052196;28;20021;-66
2023/07/24 11:55:30;;;;;;;9.55;6.28;;;22.30;69.00;;;;;;5042291;28;20022;-66
2023/07/24 11:58:00;;;;;;;10.35;6.57;;;22.40;68.90;;;;;;5047355;28;20105;-67
2023/07/24 12:00:27;;;;;;;11.55;6.60;;;22.50;68.90;;;;;;5046054;28;20041;-66
2023/07/24 12:02:58;;;;;;;8.98;5.95;;;22.50;68.80;;;;;;5045714;28;20079;-66
2023/07/24 12:05:24;;;;;;;10.05;6.57;;;22.60;68.80;;;;;;5052641;28;20025;-65
2023/07/24 12:07:50;;;;;;;10.68;6.70;;;22.60;68.60;;;;;;5045381;28;20033;-65
2023/07/24 12:10:29;;;;;;;11.45;6.85;;;22.70;68.40;;;;;;5041934;28;20124;-65
2023/07/24 12:12:59;;;;;;;9.38;6.22;;;22.80;68.10;;;;;;5036271;28;20106;-65
2023/07/24 12:15:26;;;;;;;8.68;5.93;;;22.90;67.80;;;;;;5043088;28;20014;-65
2023/07/24 12:17:52;;;;;;;10.40;5.97;;;23.00;67.60;;;;;;5049234;28;20040;-65
2023/07/24 12:20:18;;;;;;;9.60;5.05;;;23.10;67.00;;;;;;5043642;28;20126;-65
2023/07/24 12:22:44;;;;;;;8.45;4.45;;;23.20;66.60;;;;;;5048759;28;20450;-65
2023/07/24 12:25:10;;;;;;;8.23;4.65;;;23.30;66.40;;;;;;5052244;28;20028;-65
2023/07/24 12:27:37;;;;;;;8.15;4.47;;;23.40;66.00;;;;;;5060753;28;20041;-65
2023/07/24 12:30:03;;;;;;;8.85;5.53;;;23.50;65.80;;;;;;5045018;28;20931;-65
2023/07/24 12:32:29;;;;;;;9.88;4.75;;;23.50;65.50;;;;;;5047407;28;20108;-65
2023/07/24 12:34:54;;;;;;;9.60;5.28;;;23.50;65.40;;;;;;5046748;28;20112;-65
2023/07/24 12:37:20;;;;;;;8.90;5.15;;;23.40;65.40;;;;;;5044544;28;20048;-65
2023/07/24 12:39:47;;;;;;;7.82;4.65;;;23.30;65.50;;;;;;5050581;28;20028;-65
2023/07/24 12:42:14;;;;;;;9.15;5.03;;;23.30;65.50;;;;;;5048502;28;20025;-65